Smiths Creek, Michigan
Current Conditions -  °F | °C
As of 12:56 AM on Sunday 23 Nov 2014 (Local Time) from KPHN Reporting Station
Broken Clouds Broken Clouds  
Wind Chill: 37°   Ceiling: 6000
Heat Index: 41°   Visibility: 7mi
Dew Point: 39°   Wind: 6mph
Humidity: 93%   Direction: 190°S
Pressure: 29.94"   Gusts: NA
Location:  42.91°N, 82.6°W
Report Text: KPHN 230556Z AUTO 19005KT 7SM SCT027 SCT042 BKN060 05/04 A2994 RMK AO2
Loading
Personal Weather Stations






























Interactive Weather Map New forecast layout! Learn more

10-Day Weather Forecast

Advertisements
Track Severe Weather on mobile